createdAt,value
2022-11-17T00:02:19.721Z,11.45
2022-11-17T00:04:46.709Z,11.52
2022-11-17T00:07:13.899Z,11.82
2022-11-17T00:09:41.377Z,11.25
2022-11-17T00:12:32.660Z,12.00
2022-11-17T00:15:00.012Z,11.48
2022-11-17T00:17:28.735Z,11.77
2022-11-17T00:20:14.197Z,11.60
2022-11-17T00:22:41.525Z,12.00
2022-11-17T00:25:08.680Z,12.07
2022-11-17T00:27:36.627Z,12.70
2022-11-17T00:30:04.089Z,12.57
2022-11-17T00:32:50.965Z,11.23
2022-11-17T00:35:17.809Z,11.65
2022-11-17T00:38:03.567Z,12.05
2022-11-17T00:40:30.906Z,12.15
2022-11-17T00:42:58.146Z,11.85
2022-11-17T00:45:25.035Z,12.57
2022-11-17T00:47:53.564Z,12.77
2022-11-17T00:50:20.526Z,12.65
2022-11-17T00:52:47.772Z,12.35
2022-11-17T00:55:15.044Z,13.07
2022-11-17T00:57:42.231Z,12.82
2022-11-17T01:00:10.151Z,13.25
2022-11-17T01:02:37.387Z,13.07
2022-11-17T01:05:07.568Z,14.13
2022-11-17T01:07:34.761Z,12.63
2022-11-17T01:10:01.644Z,12.63
2022-11-17T01:12:28.850Z,12.98
2022-11-17T01:14:55.772Z,13.60
2022-11-17T01:17:22.971Z,14.65
2022-11-17T01:19:50.220Z,13.18
2022-11-17T01:22:18.873Z,14.32
2022-11-17T01:24:45.829Z,13.75
2022-11-17T01:27:12.954Z,13.90
2022-11-17T01:29:39.842Z,13.48
2022-11-17T01:32:07.069Z,14.52
2022-11-17T01:34:34.134Z,14.20
2022-11-17T01:37:19.497Z,14.02
2022-11-17T01:39:48.185Z,13.57
2022-11-17T01:44:59.422Z,12.90
2022-11-17T01:47:42.588Z,13.75
2022-11-17T01:50:22.111Z,14.23
2022-11-17T01:52:52.119Z,15.88
2022-11-17T01:55:24.194Z,14.35
2022-11-17T01:57:55.449Z,15.20
2022-11-17T02:00:22.831Z,16.88
2022-11-17T02:02:51.008Z,16.85
2022-11-17T02:05:28.999Z,16.17
2022-11-17T02:07:59.583Z,16.52
2022-11-17T02:10:30.847Z,16.17
2022-11-17T02:12:58.564Z,14.57
2022-11-17T02:15:26.702Z,13.93
2022-11-17T02:17:54.257Z,14.15
2022-11-17T02:20:31.530Z,13.85
2022-11-17T02:23:43.529Z,12.27
2022-11-17T02:26:47.520Z,10.25
2022-11-17T02:29:21.757Z,8.15
2022-11-17T02:31:58.261Z,7.93
2022-11-17T02:34:34.311Z,8.25
2022-11-17T02:37:10.052Z,7.03
2022-11-17T02:39:43.938Z,8.43
2022-11-17T02:42:16.268Z,7.50
2022-11-17T02:44:52.230Z,7.53
2022-11-17T02:47:24.564Z,6.88
2022-11-17T02:49:58.814Z,8.80
2022-11-17T02:52:27.398Z,9.55
2022-11-17T02:54:59.451Z,10.00
2022-11-17T02:57:30.371Z,10.43
2022-11-17T03:00:02.244Z,12.30
2022-11-17T03:02:49.360Z,15.27
2022-11-17T03:05:23.040Z,13.27
2022-11-17T03:08:06.601Z,12.82
2022-11-17T03:10:45.513Z,11.48
2022-11-17T03:13:21.206Z,11.60
2022-11-17T03:15:55.247Z,11.20
2022-11-17T03:18:30.340Z,10.65
2022-11-17T03:21:08.125Z,12.70
2022-11-17T03:23:41.511Z,8.52
2022-11-17T03:26:13.191Z,8.73
2022-11-17T03:28:42.851Z,8.05
2022-11-17T03:31:15.131Z,7.82
2022-11-17T03:33:47.260Z,9.02
2022-11-17T03:36:20.144Z,7.30
2022-11-17T03:38:55.030Z,7.68
2022-11-17T03:41:23.950Z,8.15
2022-11-17T03:43:53.970Z,7.40
2022-11-17T03:46:24.996Z,6.82
2022-11-17T03:48:57.565Z,6.93
2022-11-17T03:51:28.553Z,5.88
2022-11-17T03:53:55.928Z,6.13
2022-11-17T03:56:34.406Z,5.70
2022-11-17T03:59:05.688Z,5.03
2022-11-17T04:01:36.666Z,6.60
2022-11-17T04:04:03.912Z,6.35
2022-11-17T04:06:31.059Z,5.03
2022-11-17T04:08:58.005Z,4.65
2022-11-17T04:11:43.896Z,4.45
2022-11-17T04:14:29.860Z,4.68
2022-11-17T04:16:58.331Z,4.70
2022-11-17T04:19:25.162Z,4.68
2022-11-17T04:21:52.275Z,4.40
2022-11-17T04:24:19.407Z,4.53
2022-11-17T04:27:05.069Z,4.68
2022-11-17T04:29:34.032Z,4.72
2022-11-17T04:32:04.678Z,4.55
2022-11-17T04:34:31.613Z,4.55
2022-11-17T04:37:00.778Z,5.55
2022-11-17T04:39:30.916Z,5.47
2022-11-17T04:42:02.015Z,6.00
2022-11-17T04:44:30.434Z,6.10
2022-11-17T04:46:58.224Z,7.07
2022-11-17T04:49:26.560Z,7.65
2022-11-17T04:51:53.766Z,7.28
2022-11-17T04:54:24.127Z,7.85
2022-11-17T04:56:52.435Z,8.23
2022-11-17T04:59:19.279Z,9.30
2022-11-17T05:01:46.599Z,8.75
2022-11-17T05:04:15.463Z,9.63
2022-11-17T05:06:45.587Z,8.80
2022-11-17T05:09:14.834Z,8.68
2022-11-17T05:12:01.404Z,9.43
2022-11-17T05:14:31.504Z,8.95
2022-11-17T05:17:10.909Z,9.93
2022-11-17T05:19:40.922Z,10.10
2022-11-17T05:22:28.653Z,10.23
2022-11-17T05:24:57.379Z,11.35
2022-11-17T05:27:25.209Z,10.57
2022-11-17T05:29:54.362Z,12.25
2022-11-17T05:32:23.780Z,12.18
2022-11-17T05:34:50.800Z,11.77
2022-11-17T05:37:22.817Z,11.43
2022-11-17T05:42:17.392Z,11.40
2022-11-17T05:44:44.380Z,11.85
2022-11-17T05:47:11.628Z,13.27
2022-11-17T05:49:38.626Z,12.43
2022-11-17T05:52:05.780Z,12.48
2022-11-17T05:54:34.085Z,13.75
2022-11-17T05:57:06.116Z,13.05
2022-11-17T05:59:38.381Z,11.95
2022-11-17T06:02:10.210Z,14.15
2022-11-17T06:04:38.054Z,13.30
2022-11-17T06:07:05.594Z,12.67
2022-11-17T06:09:36.630Z,13.38
2022-11-17T06:12:06.365Z,14.00
2022-11-17T06:14:39.110Z,12.98
2022-11-17T06:17:12.801Z,13.10
2022-11-17T06:19:43.744Z,16.85
2022-11-17T06:22:12.971Z,16.52
2022-11-17T06:24:44.679Z,13.88
2022-11-17T06:27:14.197Z,12.63
2022-11-17T06:29:44.828Z,12.98
2022-11-17T06:32:13.227Z,13.35
2022-11-17T06:34:41.117Z,12.90
2022-11-17T06:37:08.353Z,11.32
2022-11-17T06:39:35.234Z,12.60
2022-11-17T06:42:03.874Z,11.52
2022-11-17T06:44:32.997Z,11.40
2022-11-17T06:47:00.355Z,10.65
2022-11-17T06:49:45.246Z,10.65
2022-11-17T06:52:12.555Z,12.27
2022-11-17T06:54:42.370Z,12.48
2022-11-17T06:57:20.189Z,11.15
2022-11-17T06:59:47.532Z,11.43
2022-11-17T07:02:18.953Z,11.80
2022-11-17T07:04:46.305Z,10.70
2022-11-17T07:07:13.563Z,10.35
2022-11-17T07:09:43.327Z,10.40
2022-11-17T07:12:10.476Z,10.30
2022-11-17T07:14:38.825Z,10.00
2022-11-17T07:17:07.071Z,10.40
2022-11-17T07:19:34.154Z,12.97
2022-11-17T07:22:01.526Z,13.93
2022-11-17T07:24:28.755Z,13.02
2022-11-17T07:26:56.022Z,14.35
2022-11-17T07:29:23.030Z,12.35
2022-11-17T07:31:56.758Z,12.25
2022-11-17T07:34:23.698Z,12.23
2022-11-17T07:36:50.983Z,12.13
2022-11-17T07:39:21.888Z,12.27
2022-11-17T07:41:49.311Z,12.13
2022-11-17T07:44:16.318Z,13.27
2022-11-17T07:46:43.578Z,13.23
2022-11-17T07:49:11.941Z,12.88
2022-11-17T07:51:40.553Z,13.13
2022-11-17T07:54:07.608Z,13.23
2022-11-17T07:56:34.942Z,13.27
2022-11-17T07:59:01.870Z,13.48
2022-11-17T08:01:29.745Z,13.13
2022-11-17T08:03:58.048Z,12.93
2022-11-17T08:06:26.781Z,13.18
2022-11-17T08:08:54.422Z,12.65
2022-11-17T08:11:22.019Z,12.25
2022-11-17T08:13:50.226Z,12.27
2022-11-17T08:16:17.982Z,13.15
2022-11-17T08:18:50.490Z,10.63
2022-11-17T08:21:19.422Z,12.77
2022-11-17T08:23:55.028Z,11.73
2022-11-17T08:26:23.841Z,12.15
2022-11-17T08:28:58.410Z,10.88
2022-11-17T08:31:27.333Z,13.10
2022-11-17T08:33:54.599Z,11.95
2022-11-17T08:36:22.062Z,10.75
2022-11-17T08:38:50.378Z,11.60
2022-11-17T08:41:18.830Z,12.07
2022-11-17T08:43:45.979Z,11.80
2022-11-17T08:46:13.811Z,10.80
2022-11-17T08:48:41.022Z,10.70
2022-11-17T08:51:09.809Z,11.57
2022-11-17T08:53:37.049Z,11.40
2022-11-17T08:56:09.291Z,10.65
2022-11-17T08:58:40.983Z,13.30
2022-11-17T09:01:09.096Z,12.48
2022-11-17T09:03:36.510Z,10.98
2022-11-17T09:06:05.139Z,10.35
2022-11-17T09:08:47.959Z,12.07
2022-11-17T09:11:17.090Z,11.20
2022-11-17T09:13:45.911Z,9.57
2022-11-17T09:18:41.116Z,9.68
2022-11-17T09:21:11.183Z,11.13
2022-11-17T09:23:39.016Z,10.57
2022-11-17T09:26:08.118Z,11.52
2022-11-17T09:28:37.031Z,11.23
2022-11-17T09:31:08.493Z,11.23
2022-11-17T09:33:35.785Z,11.10
2022-11-17T09:36:03.694Z,11.45
2022-11-17T09:38:33.136Z,11.35
2022-11-17T09:41:09.382Z,12.02
2022-11-17T09:43:42.173Z,11.52
2022-11-17T09:46:22.450Z,10.45
2022-11-17T09:48:57.799Z,11.90
2022-11-17T09:51:26.342Z,12.00
2022-11-17T09:53:59.507Z,9.88
2022-11-17T09:56:32.791Z,11.52
2022-11-17T09:59:04.746Z,10.93
2022-11-17T10:01:39.247Z,10.38
2022-11-17T10:04:11.712Z,9.98
2022-11-17T10:06:42.323Z,10.35
2022-11-17T10:09:24.082Z,10.00
2022-11-17T10:11:54.486Z,9.68
2022-11-17T10:14:23.105Z,9.80
2022-11-17T10:19:24.912Z,11.38
2022-11-17T10:21:54.627Z,10.57
2022-11-17T10:24:38.722Z,10.63
2022-11-17T10:27:15.335Z,10.55
2022-11-17T10:29:56.783Z,10.20
2022-11-17T10:32:24.217Z,10.90
2022-11-17T10:34:51.851Z,9.18
2022-11-17T10:37:27.313Z,9.73
2022-11-17T10:40:12.601Z,8.70
2022-11-17T10:42:42.597Z,9.40
2022-11-17T10:45:17.504Z,10.52
2022-11-17T10:47:45.998Z,10.07
2022-11-17T10:50:19.877Z,9.33
2022-11-17T10:52:48.628Z,9.75
2022-11-17T10:55:21.536Z,8.82
2022-11-17T10:57:52.154Z,9.13
2022-11-17T11:00:27.245Z,9.10
2022-11-17T11:03:21.104Z,8.82
2022-11-17T11:06:24.239Z,9.10
2022-11-17T11:08:56.252Z,9.45
2022-11-17T11:11:43.360Z,10.80
2022-11-17T11:14:22.057Z,8.98
2022-11-17T11:16:51.404Z,9.23
2022-11-17T11:19:20.136Z,8.43
2022-11-17T11:22:00.687Z,8.60
2022-11-17T11:24:35.303Z,7.72
2022-11-17T11:27:16.688Z,8.10
2022-11-17T11:29:52.905Z,8.32
2022-11-17T11:32:27.946Z,8.07
2022-11-17T11:35:30.755Z,8.45
2022-11-17T11:38:05.811Z,8.18
2022-11-17T11:40:38.203Z,9.18
2022-11-17T11:43:20.294Z,9.13
2022-11-17T11:45:58.065Z,8.00
2022-11-17T11:48:28.076Z,8.25
2022-11-17T11:50:57.919Z,7.82
2022-11-17T11:53:44.356Z,8.10
2022-11-17T11:56:22.125Z,8.10
2022-11-17T11:58:57.359Z,8.35
2022-11-17T12:01:26.201Z,7.57
2022-11-17T12:04:09.408Z,7.72
2022-11-17T12:06:44.642Z,7.53
2022-11-17T12:09:35.146Z,7.78
2022-11-17T12:12:08.626Z,7.85
2022-11-17T12:14:40.109Z,7.07
2022-11-17T12:17:18.582Z,7.55
2022-11-17T12:19:54.263Z,9.00
2022-11-17T12:23:02.691Z,9.52
2022-11-17T12:25:34.377Z,7.50
2022-11-17T12:28:26.583Z,7.65
2022-11-17T12:30:58.234Z,6.88
2022-11-17T12:34:11.359Z,7.68
2022-11-17T12:36:40.198Z,7.18
2022-11-17T12:39:46.706Z,7.47
2022-11-17T12:42:13.889Z,7.30
2022-11-17T12:44:50.079Z,7.43
2022-11-17T12:47:20.791Z,7.45
2022-11-17T12:50:03.839Z,7.30
2022-11-17T12:52:44.039Z,7.40
2022-11-17T12:55:17.801Z,8.45
2022-11-17T12:57:49.350Z,9.23
2022-11-17T13:00:22.034Z,7.05
2022-11-17T13:02:59.522Z,7.43
2022-11-17T13:05:28.069Z,7.15
2022-11-17T13:08:18.079Z,7.70
2022-11-17T13:10:45.145Z,8.30
2022-11-17T13:13:14.875Z,7.72
2022-11-17T13:15:43.585Z,7.18
2022-11-17T13:18:18.077Z,7.35
2022-11-17T13:20:48.568Z,8.48
2022-11-17T13:23:22.151Z,6.55
2022-11-17T13:25:49.481Z,7.50
2022-11-17T13:28:28.581Z,7.88
2022-11-17T13:33:29.661Z,7.03
2022-11-17T13:36:16.393Z,7.97
2022-11-17T13:38:49.275Z,7.47
2022-11-17T13:41:17.346Z,7.30
2022-11-17T13:43:46.646Z,7.72
2022-11-17T13:46:13.737Z,7.25
2022-11-17T13:48:42.751Z,7.28
2022-11-17T13:51:27.787Z,8.00
2022-11-17T13:53:59.820Z,6.63
2022-11-17T13:56:33.409Z,7.35
2022-11-17T13:59:06.153Z,6.68
2022-11-17T14:01:33.445Z,7.88
2022-11-17T14:04:20.032Z,7.32
2022-11-17T14:07:10.146Z,8.20
2022-11-17T14:09:38.706Z,7.13
2022-11-17T14:12:09.429Z,7.05
2022-11-17T14:14:42.195Z,6.70
2022-11-17T14:17:12.378Z,6.97
2022-11-17T14:19:41.850Z,7.38
2022-11-17T14:22:31.010Z,6.88
2022-11-17T14:25:00.312Z,7.93
2022-11-17T14:27:39.271Z,7.18
2022-11-17T14:30:09.973Z,7.88
2022-11-17T14:32:36.869Z,7.70
2022-11-17T14:35:04.710Z,6.85
2022-11-17T14:37:32.599Z,6.85
2022-11-17T14:40:03.760Z,7.50
2022-11-17T14:42:35.856Z,9.32
2022-11-17T14:45:04.443Z,8.32
2022-11-17T14:47:31.499Z,7.57
2022-11-17T14:49:58.852Z,6.95
2022-11-17T14:52:30.962Z,7.90
2022-11-17T14:54:59.043Z,7.28
2022-11-17T14:57:27.385Z,8.85
2022-11-17T14:59:54.558Z,8.45
2022-11-17T15:02:21.525Z,8.05
2022-11-17T15:04:51.010Z,8.10
2022-11-17T15:07:19.373Z,7.45
2022-11-17T15:09:46.513Z,7.40
2022-11-17T15:12:13.420Z,6.78
2022-11-17T15:14:42.100Z,7.65
2022-11-17T15:17:13.849Z,6.57
2022-11-17T15:19:41.780Z,7.85
2022-11-17T15:22:08.889Z,7.95
2022-11-17T15:24:42.398Z,8.90
2022-11-17T15:27:10.734Z,8.98
2022-11-17T15:29:38.048Z,9.55
2022-11-17T15:32:07.503Z,9.65
2022-11-17T15:34:35.846Z,9.65
2022-11-17T15:37:02.918Z,10.05
2022-11-17T15:39:35.882Z,8.90
2022-11-17T15:42:02.746Z,8.70
2022-11-17T15:44:30.017Z,9.10
2022-11-17T15:47:02.694Z,8.48
2022-11-17T15:49:32.669Z,8.35
2022-11-17T15:52:05.261Z,7.68
2022-11-17T15:54:34.839Z,9.13
2022-11-17T15:57:06.725Z,8.77
2022-11-17T15:59:33.994Z,9.00
2022-11-17T16:02:08.341Z,9.35
2022-11-17T16:04:37.110Z,8.88
2022-11-17T16:07:04.387Z,8.77
2022-11-17T16:09:31.789Z,9.73
2022-11-17T16:12:00.002Z,9.45
2022-11-17T16:14:27.267Z,10.48
2022-11-17T16:16:54.259Z,9.90
2022-11-17T16:19:21.582Z,10.95
2022-11-17T16:21:50.019Z,12.27
2022-11-17T16:24:17.542Z,12.07
2022-11-17T16:26:45.769Z,12.63
2022-11-17T16:29:13.022Z,13.75
2022-11-17T16:31:42.389Z,13.32
2022-11-17T16:34:18.040Z,14.30
2022-11-17T16:36:45.168Z,15.55
2022-11-17T16:39:17.389Z,17.80
2022-11-17T16:41:45.673Z,17.02
2022-11-17T16:44:14.884Z,16.77
2022-11-17T16:46:43.430Z,15.77
2022-11-17T16:49:12.515Z,15.10
2022-11-17T16:51:40.149Z,13.43
2022-11-17T16:54:12.268Z,14.38
2022-11-17T16:56:40.733Z,13.88
2022-11-17T16:59:09.605Z,14.00
2022-11-17T17:01:39.189Z,13.77
2022-11-17T17:04:09.928Z,13.30
2022-11-17T17:06:39.595Z,13.68
2022-11-17T17:09:08.902Z,13.45
2022-11-17T17:14:06.809Z,13.25
2022-11-17T17:16:35.750Z,12.82
2022-11-17T17:19:05.419Z,12.25
2022-11-17T17:21:37.941Z,13.18
2022-11-17T17:24:06.349Z,12.93
2022-11-17T17:26:35.004Z,13.30
2022-11-17T17:31:34.029Z,12.77
2022-11-17T17:34:03.096Z,13.02
2022-11-17T17:36:30.629Z,12.93
2022-11-17T17:39:01.908Z,13.27
2022-11-17T17:41:30.843Z,12.23
2022-11-17T17:43:59.263Z,12.50
2022-11-17T17:46:29.534Z,13.35
2022-11-17T17:48:58.668Z,14.82
2022-11-17T17:51:27.336Z,12.95
2022-11-17T17:53:57.938Z,15.40
2022-11-17T17:56:25.494Z,16.38
2022-11-17T17:58:54.570Z,15.50
2022-11-17T18:01:24.475Z,15.25
2022-11-17T18:04:00.974Z,15.00
2022-11-17T18:06:29.273Z,15.75
2022-11-17T18:08:57.840Z,16.42
2022-11-17T18:11:25.326Z,16.23
2022-11-17T18:13:53.498Z,16.33
2022-11-17T18:16:22.715Z,15.35
2022-11-17T18:18:55.170Z,21.30
2022-11-17T18:21:25.340Z,17.00
2022-11-17T18:23:55.127Z,17.45
2022-11-17T18:26:23.914Z,21.25
2022-11-17T18:28:52.872Z,20.52
2022-11-17T18:31:24.049Z,17.42
2022-11-17T18:33:51.765Z,15.07
2022-11-17T18:36:19.172Z,13.85
2022-11-17T18:38:46.313Z,13.77
2022-11-17T18:41:16.362Z,14.00
2022-11-17T18:43:44.349Z,15.05
2022-11-17T18:46:13.743Z,14.55
2022-11-17T18:48:43.277Z,14.98
2022-11-17T18:51:20.698Z,14.75
2022-11-17T18:53:49.668Z,14.02
2022-11-17T18:56:19.707Z,14.23
2022-11-17T18:58:47.030Z,14.88
2022-11-17T19:01:18.030Z,12.80
2022-11-17T19:03:47.027Z,13.32
2022-11-17T19:06:16.972Z,13.63
2022-11-17T19:08:45.262Z,12.93
2022-11-17T19:11:12.876Z,12.95
2022-11-17T19:13:42.244Z,12.68
2022-11-17T19:16:12.672Z,12.55
2022-11-17T19:18:41.591Z,12.27
2022-11-17T19:21:10.608Z,12.48
2022-11-17T19:23:39.402Z,11.70
2022-11-17T19:26:08.343Z,12.27
2022-11-17T19:31:05.816Z,14.57
2022-11-17T19:33:34.965Z,17.98
2022-11-17T19:36:06.758Z,18.27
2022-11-17T19:38:35.019Z,18.50
2022-11-17T19:41:05.443Z,19.27
2022-11-17T19:43:33.228Z,19.42
2022-11-17T19:46:01.252Z,18.08
2022-11-17T19:48:32.111Z,18.30
2022-11-17T19:51:00.081Z,16.00
2022-11-17T19:53:27.406Z,16.90
2022-11-17T19:55:54.341Z,17.60
2022-11-17T19:58:21.702Z,20.85
2022-11-17T20:00:49.029Z,22.50
2022-11-17T20:03:16.165Z,26.27
2022-11-17T20:05:45.099Z,22.80
2022-11-17T20:08:12.405Z,26.88
2022-11-17T20:10:39.321Z,26.50
2022-11-17T20:13:06.465Z,26.75
2022-11-17T20:15:34.748Z,23.48
2022-11-17T20:18:02.214Z,22.60
2022-11-17T20:22:59.724Z,19.80
2022-11-17T20:25:26.744Z,17.58
2022-11-17T20:27:56.356Z,17.52
2022-11-17T20:30:26.320Z,18.63
2022-11-17T20:32:53.500Z,16.48
2022-11-17T20:35:20.541Z,15.23
2022-11-17T20:37:47.695Z,14.80
2022-11-17T20:40:16.293Z,15.18
2022-11-17T20:42:43.458Z,14.90
2022-11-17T20:45:11.121Z,14.55
2022-11-17T20:47:38.418Z,14.93
2022-11-17T20:50:06.639Z,15.15
2022-11-17T20:52:34.090Z,14.43
2022-11-17T20:55:03.630Z,14.68
2022-11-17T20:57:32.417Z,15.40
2022-11-17T20:59:59.466Z,15.93
2022-11-17T21:02:27.838Z,15.27
2022-11-17T21:04:54.971Z,15.80
2022-11-17T21:07:22.617Z,13.38
2022-11-17T21:09:51.650Z,13.80
2022-11-17T21:12:29.008Z,13.55
2022-11-17T21:14:57.525Z,12.25
2022-11-17T21:17:43.129Z,13.30
2022-11-17T21:20:13.025Z,12.13
2022-11-17T21:22:47.909Z,13.55
2022-11-17T21:25:17.935Z,14.80
2022-11-17T21:27:59.768Z,13.57
2022-11-17T21:30:31.021Z,14.55
2022-11-17T21:32:57.944Z,15.60
2022-11-17T21:35:27.012Z,15.63
2022-11-17T21:37:54.026Z,16.02
2022-11-17T21:40:22.464Z,15.85
2022-11-17T21:42:49.444Z,16.05
2022-11-17T21:45:19.767Z,16.67
2022-11-17T21:47:50.772Z,15.68
2022-11-17T21:50:26.094Z,16.27
2022-11-17T21:52:53.014Z,15.23
2022-11-17T21:55:26.451Z,16.08
2022-11-17T21:57:53.418Z,16.10
2022-11-17T22:00:21.076Z,15.95
2022-11-17T22:02:49.264Z,17.08
2022-11-17T22:05:22.326Z,14.90
2022-11-17T22:07:50.124Z,15.77
2022-11-17T22:10:17.622Z,15.15
2022-11-17T22:12:47.398Z,16.08
2022-11-17T22:15:14.666Z,14.75
2022-11-17T22:17:41.659Z,14.90
2022-11-17T22:20:10.768Z,14.85
2022-11-17T22:22:37.775Z,14.38
2022-11-17T22:25:29.844Z,13.32
2022-11-17T22:27:52.775Z,13.30
2022-11-17T22:30:22.624Z,13.57
2022-11-17T22:32:52.478Z,12.38
2022-11-17T22:35:23.044Z,12.38
2022-11-17T22:37:51.630Z,12.27
2022-11-17T22:40:22.262Z,12.38
2022-11-17T22:42:52.510Z,12.40
2022-11-17T22:45:20.090Z,12.02
2022-11-17T22:47:47.366Z,12.75
2022-11-17T22:50:14.552Z,12.00
2022-11-17T22:52:42.905Z,13.30
2022-11-17T22:55:10.368Z,13.05
2022-11-17T22:57:37.327Z,12.57
2022-11-17T23:00:05.916Z,11.25
2022-11-17T23:02:32.851Z,11.98
2022-11-17T23:05:00.435Z,11.63
2022-11-17T23:07:27.544Z,11.65
2022-11-17T23:09:56.161Z,12.00
2022-11-17T23:12:23.091Z,10.95
2022-11-17T23:14:50.193Z,10.25
2022-11-17T23:17:17.314Z,10.82
2022-11-17T23:19:44.856Z,11.00
2022-11-17T23:22:12.168Z,10.13
2022-11-17T23:24:39.806Z,10.30
2022-11-17T23:27:08.336Z,10.38
2022-11-17T23:29:38.050Z,10.48
2022-11-17T23:32:05.553Z,9.52
2022-11-17T23:34:32.769Z,10.60
2022-11-17T23:37:05.171Z,10.85
2022-11-17T23:39:32.522Z,10.07
2022-11-17T23:42:01.856Z,11.07
2022-11-17T23:44:36.097Z,10.32
2022-11-17T23:47:06.355Z,10.35
2022-11-17T23:49:36.078Z,9.35
2022-11-17T23:52:02.971Z,10.27
2022-11-17T23:54:30.442Z,9.65
2022-11-17T23:56:57.444Z,10.15
2022-11-17T23:59:24.577Z,9.18
